sensor_id;sensor_type;location;lat;lon;timestamp;pressure;altitude;pressure_sealevel;temperature;humidity
17593;BME280;8915;51.760;14.300;2023-02-04T00:01:49;101078.88;;;1.40;100.00
17593;BME280;8915;51.760;14.300;2023-02-04T00:04:15;101083.19;;;1.41;100.00
17593;BME280;8915;51.760;14.300;2023-02-04T00:06:41;101111.44;;;1.39;100.00
17593;BME280;8915;51.760;14.300;2023-02-04T00:09:09;101126.81;;;1.38;100.00
17593;BME280;8915;51.760;14.300;2023-02-04T00:11:36;101149.06;;;1.36;100.00
17593;BME280;8915;51.760;14.300;2023-02-04T00:14:03;101139.56;;;1.33;100.00
17593;BME280;8915;51.760;14.300;2023-02-04T00:16:29;101156.66;;;1.31;100.00
17593;BME280;8915;51.760;14.300;2023-02-04T00:18:55;101154.06;;;1.29;100.00
17593;BME280;8915;51.760;14.300;2023-02-04T00:21:22;101161.72;;;1.28;100.00
17593;BME280;8915;51.760;14.300;2023-02-04T00:23:48;101183.97;;;1.26;100.00
17593;BME280;8915;51.760;14.300;2023-02-04T00:26:16;101176.31;;;1.29;100.00
17593;BME280;8915;51.760;14.300;2023-02-04T00:28:43;101193.38;;;1.25;100.00
17593;BME280;8915;51.760;14.300;2023-02-04T00:31:09;101204.66;;;1.32;100.00
17593;BME280;8915;51.760;14.300;2023-02-04T00:33:35;101229.41;;;1.30;100.00
17593;BME280;8915;51.760;14.300;2023-02-04T00:36:02;101226.84;;;1.30;100.00
17593;BME280;8915;51.760;14.300;2023-02-04T00:38:29;101242.22;;;1.28;100.00
17593;BME280;8915;51.760;14.300;2023-02-04T00:40:55;101250.84;;;1.29;100.00
17593;BME280;8915;51.760;14.300;2023-02-04T00:43:23;101256.78;;;1.28;100.00
17593;BME280;8915;51.760;14.300;2023-02-04T00:45:50;101259.31;;;1.26;100.00
17593;BME280;8915;51.760;14.300;2023-02-04T00:48:16;101272.22;;;1.28;100.00
17593;BME280;8915;51.760;14.300;2023-02-04T00:50:42;101267.91;;;1.27;100.00
17593;BME280;8915;51.760;14.300;2023-02-04T00:53:09;101295.41;;;1.31;100.00
17593;BME280;8915;51.760;14.300;2023-02-04T00:55:36;101313.34;;;1.29;100.00
17593;BME280;8915;51.760;14.300;2023-02-04T00:58:03;101316.69;;;1.25;100.00
17593;BME280;8915;51.760;14.300;2023-02-04T01:00:31;101332.19;;;1.30;100.00
17593;BME280;8915;51.760;14.300;2023-02-04T01:02:57;101346.88;;;1.34;100.00
17593;BME280;8915;51.760;14.300;2023-02-04T01:05:23;101348.53;;;1.32;100.00
17593;BME280;8915;51.760;14.300;2023-02-04T01:07:50;101359.53;;;1.26;100.00
17593;BME280;8915;51.760;14.300;2023-02-04T01:10:17;101368.81;;;1.21;100.00
17593;BME280;8915;51.760;14.300;2023-02-04T01:12:43;101392.88;;;1.23;100.00
17593;BME280;8915;51.760;14.300;2023-02-04T01:15:10;101398.13;;;1.29;100.00
17593;BME280;8915;51.760;14.300;2023-02-04T01:17:37;101442.63;;;1.27;100.00
17593;BME280;8915;51.760;14.300;2023-02-04T01:20:06;101442.63;;;1.28;100.00
17593;BME280;8915;51.760;14.300;2023-02-04T01:22:32;101459.81;;;1.29;100.00
17593;BME280;8915;51.760;14.300;2023-02-04T01:24:59;101463.84;;;1.20;100.00
17593;BME280;8915;51.760;14.300;2023-02-04T01:27:42;101496.25;;;1.15;100.00
17593;BME280;8915;51.760;14.300;2023-02-04T01:30:10;101506.28;;;1.05;100.00
17593;BME280;8915;51.760;14.300;2023-02-04T01:32:37;101519.81;;;1.00;100.00
17593;BME280;8915;51.760;14.300;2023-02-04T01:35:05;101576.31;;;1.00;100.00
17593;BME280;8915;51.760;14.300;2023-02-04T01:37:32;101542.88;;;0.98;100.00
17593;BME280;8915;51.760;14.300;2023-02-04T01:39:59;101574.41;;;0.92;100.00
17593;BME280;8915;51.760;14.300;2023-02-04T01:42:28;101585.44;;;0.88;100.00
17593;BME280;8915;51.760;14.300;2023-02-04T01:44:55;101572.44;;;0.84;100.00
17593;BME280;8915;51.760;14.300;2023-02-04T01:47:21;101595.34;;;0.76;100.00
17593;BME280;8915;51.760;14.300;2023-02-04T01:49:53;101599.63;;;0.77;100.00
17593;BME280;8915;51.760;14.300;2023-02-04T01:52:20;101613.38;;;0.79;100.00
17593;BME280;8915;51.760;14.300;2023-02-04T01:54:47;101628.72;;;0.76;100.00
17593;BME280;8915;51.760;14.300;2023-02-04T01:57:15;101640.66;;;0.75;100.00
17593;BME280;8915;51.760;14.300;2023-02-04T01:59:42;101644.03;;;0.73;100.00
17593;BME280;8915;51.760;14.300;2023-02-04T02:02:43;101653.38;;;0.71;100.00
17593;BME280;8915;51.760;14.300;2023-02-04T02:05:13;101662.72;;;0.69;100.00
17593;BME280;8915;51.760;14.300;2023-02-04T02:07:41;101666.16;;;0.69;100.00
17593;BME280;8915;51.760;14.300;2023-02-04T02:10:09;101671.09;;;0.63;100.00
17593;BME280;8915;51.760;14.300;2023-02-04T02:12:36;101673.59;;;0.60;100.00
17593;BME280;8915;51.760;14.300;2023-02-04T02:15:03;101689.84;;;0.61;100.00
17593;BME280;8915;51.760;14.300;2023-02-04T02:17:30;101689.91;;;0.62;100.00
17593;BME280;8915;51.760;14.300;2023-02-04T02:19:57;101684.75;;;0.62;100.00
17593;BME280;8915;51.760;14.300;2023-02-04T02:22:31;101704.47;;;0.63;100.00
17593;BME280;8915;51.760;14.300;2023-02-04T02:25:00;101707.03;;;0.63;100.00
17593;BME280;8915;51.760;14.300;2023-02-04T02:27:27;101716.38;;;0.61;100.00
17593;BME280;8915;51.760;14.300;2023-02-04T02:29:56;101720.69;;;0.62;100.00
17593;BME280;8915;51.760;14.300;2023-02-04T02:32:23;101732.63;;;0.60;100.00
17593;BME280;8915;51.760;14.300;2023-02-04T02:34:51;101744.50;;;0.58;100.00
17593;BME280;8915;51.760;14.300;2023-02-04T02:37:18;101748.72;;;0.56;100.00
17593;BME280;8915;51.760;14.300;2023-02-04T02:39:44;101757.16;;;0.52;100.00
17593;BME280;8915;51.760;14.300;2023-02-04T02:42:14;101758.84;;;0.51;100.00
17593;BME280;8915;51.760;14.300;2023-02-04T02:44:45;101768.03;;;0.45;100.00
17593;BME280;8915;51.760;14.300;2023-02-04T02:47:13;101768.72;;;0.39;100.00
17593;BME280;8915;51.760;14.300;2023-02-04T02:49:41;101801.91;;;0.34;100.00
17593;BME280;8915;51.760;14.300;2023-02-04T02:52:10;101800.13;;;0.33;100.00
17593;BME280;8915;51.760;14.300;2023-02-04T02:54:37;101800.81;;;0.28;100.00
17593;BME280;8915;51.760;14.300;2023-02-04T02:57:10;101811.78;;;0.24;100.00
17593;BME280;8915;51.760;14.300;2023-02-04T02:59:38;101816.88;;;0.22;100.00
17593;BME280;8915;51.760;14.300;2023-02-04T03:02:05;101827.91;;;0.20;100.00
17593;BME280;8915;51.760;14.300;2023-02-04T03:04:36;101835.63;;;0.21;100.00
17593;BME280;8915;51.760;14.300;2023-02-04T03:07:04;101849.16;;;0.17;100.00
17593;BME280;8915;51.760;14.300;2023-02-04T03:09:33;101848.44;;;0.20;100.00
17593;BME280;8915;51.760;14.300;2023-02-04T03:12:00;101864.63;;;0.18;100.00
17593;BME280;8915;51.760;14.300;2023-02-04T03:14:27;101857.63;;;0.14;100.00
17593;BME280;8915;51.760;14.300;2023-02-04T03:16:56;101873.03;;;0.14;100.00
17593;BME280;8915;51.760;14.300;2023-02-04T03:19:24;101872.19;;;0.15;100.00
17593;BME280;8915;51.760;14.300;2023-02-04T03:21:52;101888.50;;;0.17;100.00
17593;BME280;8915;51.760;14.300;2023-02-04T03:24:20;101888.63;;;0.21;100.00
17593;BME280;8915;51.760;14.300;2023-02-04T03:26:47;101906.47;;;0.17;100.00
17593;BME280;8915;51.760;14.300;2023-02-04T03:29:14;101915.00;;;0.16;100.00
17593;BME280;8915;51.760;14.300;2023-02-04T03:31:40;101920.19;;;0.18;100.00
17593;BME280;8915;51.760;14.300;2023-02-04T03:34:08;101932.94;;;0.16;100.00
17593;BME280;8915;51.760;14.300;2023-02-04T03:36:35;101935.41;;;0.13;100.00
17593;BME280;8915;51.760;14.300;2023-02-04T03:39:02;101947.34;;;0.13;100.00
17593;BME280;8915;51.760;14.300;2023-02-04T03:41:28;101943.94;;;0.12;100.00
17593;BME280;8915;51.760;14.300;2023-02-04T03:43:55;101947.28;;;0.11;100.00
17593;BME280;8915;51.760;14.300;2023-02-04T03:46:21;101952.34;;;0.10;100.00
17593;BME280;8915;51.760;14.300;2023-02-04T03:48:49;101955.63;;;0.06;100.00
17593;BME280;8915;51.760;14.300;2023-02-04T03:51:17;101965.56;;;-0.02;100.00
17593;BME280;8915;51.760;14.300;2023-02-04T03:53:44;101969.66;;;-0.07;100.00
17593;BME280;8915;51.760;14.300;2023-02-04T03:56:10;101977.06;;;-0.15;100.00
17593;BME280;8915;51.760;14.300;2023-02-04T03:58:37;101989.59;;;-0.23;100.00
17593;BME280;8915;51.760;14.300;2023-02-04T04:01:03;102002.84;;;-0.33;100.00
17593;BME280;8915;51.760;14.300;2023-02-04T04:03:30;102010.25;;;-0.39;100.00
17593;BME280;8915;51.760;14.300;2023-02-04T04:05:56;102009.91;;;-0.48;100.00
17593;BME280;8915;51.760;14.300;2023-02-04T04:08:24;102025.03;;;-0.54;100.00
17593;BME280;8915;51.760;14.300;2023-02-04T04:10:51;102036.63;;;-0.63;100.00
17593;BME280;8915;51.760;14.300;2023-02-04T04:13:17;102049.44;;;-0.63;100.00
17593;BME280;8915;51.760;14.300;2023-02-04T04:15:44;102054.97;;;-0.73;100.00
17593;BME280;8915;51.760;14.300;2023-02-04T04:18:10;102058.09;;;-0.80;100.00
17593;BME280;8915;51.760;14.300;2023-02-04T04:20:37;102063.81;;;-0.86;100.00
17593;BME280;8915;51.760;14.300;2023-02-04T04:23:03;102071.97;;;-0.94;100.00
17593;BME280;8915;51.760;14.300;2023-02-04T04:25:31;102080.31;;;-0.99;100.00
17593;BME280;8915;51.760;14.300;2023-02-04T04:27:57;102081.75;;;-1.05;100.00
17593;BME280;8915;51.760;14.300;2023-02-04T04:30:23;102094.34;;;-1.10;100.00
17593;BME280;8915;51.760;14.300;2023-02-04T04:32:50;102094.19;;;-1.13;100.00
17593;BME280;8915;51.760;14.300;2023-02-04T04:35:16;102113.56;;;-1.18;100.00
17593;BME280;8915;51.760;14.300;2023-02-04T04:37:43;102109.88;;;-1.25;100.00
17593;BME280;8915;51.760;14.300;2023-02-04T04:40:11;102104.47;;;-1.31;100.00
17593;BME280;8915;51.760;14.300;2023-02-04T04:42:38;102114.44;;;-1.37;100.00
17593;BME280;8915;51.760;14.300;2023-02-04T04:45:07;102139.88;;;-1.40;100.00
17593;BME280;8915;51.760;14.300;2023-02-04T04:47:34;102139.66;;;-1.45;100.00
17593;BME280;8915;51.760;14.300;2023-02-04T04:50:00;102151.19;;;-1.53;100.00
17593;BME280;8915;51.760;14.300;2023-02-04T04:52:29;102153.47;;;-1.59;100.00
17593;BME280;8915;51.760;14.300;2023-02-04T04:54:56;102164.50;;;-1.60;100.00
17593;BME280;8915;51.760;14.300;2023-02-04T04:57:22;102167.47;;;-1.69;100.00
17593;BME280;8915;51.760;14.300;2023-02-04T04:59:50;102172.22;;;-1.77;100.00
17593;BME280;8915;51.760;14.300;2023-02-04T05:02:17;102183.84;;;-1.83;100.00
17593;BME280;8915;51.760;14.300;2023-02-04T05:04:46;102192.25;;;-1.86;100.00
17593;BME280;8915;51.760;14.300;2023-02-04T05:07:12;102194.56;;;-1.91;100.00
17593;BME280;8915;51.760;14.300;2023-02-04T05:09:39;102208.88;;;-1.94;100.00
17593;BME280;8915;51.760;14.300;2023-02-04T05:12:05;102195.31;;;-1.93;100.00
17593;BME280;8915;51.760;14.300;2023-02-04T05:14:31;102202.81;;;-1.96;100.00
17593;BME280;8915;51.760;14.300;2023-02-04T05:16:59;102213.59;;;-2.02;100.00
17593;BME280;8915;51.760;14.300;2023-02-04T05:19:26;102213.38;;;-2.06;100.00
17593;BME280;8915;51.760;14.300;2023-02-04T05:21:53;102224.47;;;-2.06;100.00
17593;BME280;8915;51.760;14.300;2023-02-04T05:24:19;102229.28;;;-2.12;100.00
17593;BME280;8915;51.760;14.300;2023-02-04T05:26:45;102236.59;;;-2.18;100.00
17593;BME280;8915;51.760;14.300;2023-02-04T05:29:12;102253.06;;;-2.13;100.00
17593;BME280;8915;51.760;14.300;2023-02-04T05:31:38;102255.47;;;-2.16;100.00
17593;BME280;8915;51.760;14.300;2023-02-04T05:34:06;102265.28;;;-2.24;100.00
17593;BME280;8915;51.760;14.300;2023-02-04T05:36:32;102269.28;;;-2.29;100.00
17593;BME280;8915;51.760;14.300;2023-02-04T05:38:59;102271.81;;;-2.29;100.00
17593;BME280;8915;51.760;14.300;2023-02-04T05:41:25;102277.75;;;-2.30;100.00
17593;BME280;8915;51.760;14.300;2023-02-04T05:43:51;102285.50;;;-2.29;100.00
17593;BME280;8915;51.760;14.300;2023-02-04T05:46:18;102296.50;;;-2.30;100.00
17593;BME280;8915;51.760;14.300;2023-02-04T05:48:44;102292.13;;;-2.32;100.00
17593;BME280;8915;51.760;14.300;2023-02-04T05:51:12;102312.56;;;-2.32;100.00
17593;BME280;8915;51.760;14.300;2023-02-04T05:53:39;102317.69;;;-2.32;100.00
17593;BME280;8915;51.760;14.300;2023-02-04T05:56:05;102320.38;;;-2.29;100.00
17593;BME280;8915;51.760;14.300;2023-02-04T05:58:32;102318.56;;;-2.32;100.00
17593;BME280;8915;51.760;14.300;2023-02-04T06:00:59;102326.91;;;-2.34;100.00
17593;BME280;8915;51.760;14.300;2023-02-04T06:03:29;102329.47;;;-2.34;100.00
17593;BME280;8915;51.760;14.300;2023-02-04T06:05:56;102331.16;;;-2.35;100.00
17593;BME280;8915;51.760;14.300;2023-02-04T06:08:24;102344.81;;;-2.34;100.00
17593;BME280;8915;51.760;14.300;2023-02-04T06:10:51;102343.22;;;-2.32;100.00
17593;BME280;8915;51.760;14.300;2023-02-04T06:13:17;102350.81;;;-2.34;100.00
17593;BME280;8915;51.760;14.300;2023-02-04T06:15:43;102358.47;;;-2.34;100.00
17593;BME280;8915;51.760;14.300;2023-02-04T06:18:10;102366.16;;;-2.34;100.00
17593;BME280;8915;51.760;14.300;2023-02-04T06:20:36;102373.09;;;-2.31;100.00
17593;BME280;8915;51.760;14.300;2023-02-04T06:23:03;102377.22;;;-2.33;100.00
17593;BME280;8915;51.760;14.300;2023-02-04T06:25:31;102375.72;;;-2.30;100.00
17593;BME280;8915;51.760;14.300;2023-02-04T06:27:57;102385.22;;;-2.27;100.00
17593;BME280;8915;51.760;14.300;2023-02-04T06:30:23;102384.25;;;-2.29;100.00
17593;BME280;8915;51.760;14.300;2023-02-04T06:32:50;102389.91;;;-2.35;100.00
17593;BME280;8915;51.760;14.300;2023-02-04T06:35:16;102392.38;;;-2.36;100.00
17593;BME280;8915;51.760;14.300;2023-02-04T06:37:43;102401.66;;;-2.38;100.00
17593;BME280;8915;51.760;14.300;2023-02-04T06:40:10;102399.97;;;-2.38;100.00
17593;BME280;8915;51.760;14.300;2023-02-04T06:42:38;102407.63;;;-2.38;100.00
17593;BME280;8915;51.760;14.300;2023-02-04T06:45:06;102415.06;;;-2.42;100.00
17593;BME280;8915;51.760;14.300;2023-02-04T06:47:32;102414.34;;;-2.40;100.00
17593;BME280;8915;51.760;14.300;2023-02-04T06:49:59;102412.50;;;-2.42;100.00
17593;BME280;8915;51.760;14.300;2023-02-04T06:52:25;102421.75;;;-2.44;100.00
17593;BME280;8915;51.760;14.300;2023-02-04T06:54:51;102423.59;;;-2.42;100.00
17593;BME280;8915;51.760;14.300;2023-02-04T06:57:18;102423.50;;;-2.43;100.00
17593;BME280;8915;51.760;14.300;2023-02-04T06:59:45;102425.88;;;-2.47;100.00
17593;BME280;8915;51.760;14.300;2023-02-04T07:02:12;102430.91;;;-2.48;100.00
17593;BME280;8915;51.760;14.300;2023-02-04T07:04:39;102435.94;;;-2.50;100.00
17593;BME280;8915;51.760;14.300;2023-02-04T07:07:07;102438.75;;;-2.45;100.00
17593;BME280;8915;51.760;14.300;2023-02-04T07:09:34;102435.94;;;-2.50;100.00
17593;BME280;8915;51.760;14.300;2023-02-04T07:12:00;102448.97;;;-2.45;100.00
17593;BME280;8915;51.760;14.300;2023-02-04T07:14:27;102452.25;;;-2.48;100.00
17593;BME280;8915;51.760;14.300;2023-02-04T07:16:54;102449.69;;;-2.48;100.00
17593;BME280;8915;51.760;14.300;2023-02-04T07:19:22;102452.16;;;-2.49;100.00
17593;BME280;8915;51.760;14.300;2023-02-04T07:21:49;102444.41;;;-2.51;100.00
17593;BME280;8915;51.760;14.300;2023-02-04T07:24:18;102455.34;;;-2.53;100.00
17593;BME280;8915;51.760;14.300;2023-02-04T07:26:44;102449.19;;;-2.57;100.00
17593;BME280;8915;51.760;14.300;2023-02-04T07:29:11;102458.50;;;-2.57;100.00
17593;BME280;8915;51.760;14.300;2023-02-04T07:31:37;102461.03;;;-2.57;100.00
17593;BME280;8915;51.760;14.300;2023-02-04T07:34:05;102468.53;;;-2.60;100.00
17593;BME280;8915;51.760;14.300;2023-02-04T07:36:32;102470.38;;;-2.58;100.00
17593;BME280;8915;51.760;14.300;2023-02-04T07:38:58;102472.75;;;-2.61;100.00
17593;BME280;8915;51.760;14.300;2023-02-04T07:41:24;102469.34;;;-2.61;100.00
17593;BME280;8915;51.760;14.300;2023-02-04T07:43:51;102469.44;;;-2.60;100.00
17593;BME280;8915;51.760;14.300;2023-02-04T07:46:17;102479.09;;;-2.54;100.00
17593;BME280;8915;51.760;14.300;2023-02-04T07:48:43;102480.44;;;-2.46;100.00
17593;BME280;8915;51.760;14.300;2023-02-04T07:51:12;102489.25;;;-2.41;100.00
17593;BME280;8915;51.760;14.300;2023-02-04T07:53:38;102491.84;;;-2.39;100.00
17593;BME280;8915;51.760;14.300;2023-02-04T07:56:05;102491.34;;;-2.34;100.00
17593;BME280;8915;51.760;14.300;2023-02-04T07:58:31;102497.41;;;-2.32;100.00
17593;BME280;8915;51.760;14.300;2023-02-04T08:00:57;102500.94;;;-2.30;100.00
17593;BME280;8915;51.760;14.300;2023-02-04T08:03:26;102519.16;;;-2.23;100.00
17593;BME280;8915;51.760;14.300;2023-02-04T08:05:53;102519.25;;;-2.22;100.00
17593;BME280;8915;51.760;14.300;2023-02-04T08:08:21;102522.25;;;-2.14;100.00
17593;BME280;8915;51.760;14.300;2023-02-04T08:10:48;102527.69;;;-2.08;100.00
17593;BME280;8915;51.760;14.300;2023-02-04T08:13:14;102532.25;;;-2.02;100.00
17593;BME280;8915;51.760;14.300;2023-02-04T08:15:40;102540.47;;;-1.93;100.00
17593;BME280;8915;51.760;14.300;2023-02-04T08:18:07;102544.06;;;-1.89;100.00
17593;BME280;8915;51.760;14.300;2023-02-04T08:20:33;102548.63;;;-1.84;100.00
17593;BME280;8915;51.760;14.300;2023-02-04T08:22:59;102547.41;;;-1.76;100.00
17593;BME280;8915;51.760;14.300;2023-02-04T08:25:28;102547.06;;;-1.65;100.00
17593;BME280;8915;51.760;14.300;2023-02-04T08:27:54;102564.56;;;-1.58;100.00
17593;BME280;8915;51.760;14.300;2023-02-04T08:30:21;102569.13;;;-1.53;100.00
17593;BME280;8915;51.760;14.300;2023-02-04T08:32:47;102561.13;;;-1.42;100.00
17593;BME280;8915;51.760;14.300;2023-02-04T08:35:15;102567.44;;;-1.36;100.00
17593;BME280;8915;51.760;14.300;2023-02-04T08:37:41;102567.69;;;-1.31;100.00
17593;BME280;8915;51.760;14.300;2023-02-04T08:40:09;102567.41;;;-1.21;100.00
17593;BME280;8915;51.760;14.300;2023-02-04T08:42:37;102583.06;;;-1.15;100.00
17593;BME280;8915;51.760;14.300;2023-02-04T08:45:03;102584.94;;;-1.12;100.00
17593;BME280;8915;51.760;14.300;2023-02-04T08:47:30;102597.16;;;-1.06;100.00
17593;BME280;8915;51.760;14.300;2023-02-04T08:49:56;102604.38;;;-0.99;100.00
17593;BME280;8915;51.760;14.300;2023-02-04T08:52:23;102604.78;;;-0.91;100.00
17593;BME280;8915;51.760;14.300;2023-02-04T08:54:49;102605.34;;;-0.81;100.00
17593;BME280;8915;51.760;14.300;2023-02-04T08:57:15;102613.16;;;-0.78;100.00
17593;BME280;8915;51.760;14.300;2023-02-04T08:59:43;102614.00;;;-0.79;100.00
17593;BME280;8915;51.760;14.300;2023-02-04T09:02:10;102614.06;;;-0.77;100.00
17593;BME280;8915;51.760;14.300;2023-02-04T09:04:36;102621.97;;;-0.72;100.00
17593;BME280;8915;51.760;14.300;2023-02-04T09:07:03;102626.47;;;-0.68;100.00
17593;BME280;8915;51.760;14.300;2023-02-04T09:09:29;102629.59;;;-0.58;100.00
17593;BME280;8915;51.760;14.300;2023-02-04T09:11:56;102623.31;;;-0.46;100.00
17593;BME280;8915;51.760;14.300;2023-02-04T09:14:23;102633.16;;;-0.38;100.00
17593;BME280;8915;51.760;14.300;2023-02-04T09:16:50;102627.53;;;-0.30;100.00
17593;BME280;8915;51.760;14.300;2023-02-04T09:19:17;102633.94;;;-0.22;100.00
17593;BME280;8915;51.760;14.300;2023-02-04T09:21:49;102642.84;;;-0.15;100.00
17593;BME280;8915;51.760;14.300;2023-02-04T09:24:16;102647.97;;;-0.15;100.00
17593;BME280;8915;51.760;14.300;2023-02-04T09:26:42;102652.59;;;-0.08;100.00
17593;BME280;8915;51.760;14.300;2023-02-04T09:29:08;102652.00;;;-0.03;100.00
17593;BME280;8915;51.760;14.300;2023-02-04T09:31:35;102647.91;;;0.01;100.00
17593;BME280;8915;51.760;14.300;2023-02-04T09:34:03;102658.69;;;0.12;100.00
17593;BME280;8915;51.760;14.300;2023-02-04T09:36:29;102658.44;;;0.24;100.00
17593;BME280;8915;51.760;14.300;2023-02-04T09:39:02;102659.69;;;0.32;100.00
17593;BME280;8915;51.760;14.300;2023-02-04T09:41:28;102665.19;;;0.40;100.00
17593;BME280;8915;51.760;14.300;2023-02-04T09:43:55;102671.25;;;0.42;100.00
17593;BME280;8915;51.760;14.300;2023-02-04T09:46:23;102674.00;;;0.45;100.00
17593;BME280;8915;51.760;14.300;2023-02-04T09:48:54;102680.31;;;0.51;100.00
17593;BME280;8915;51.760;14.300;2023-02-04T09:51:26;102676.84;;;0.51;100.00
17593;BME280;8915;51.760;14.300;2023-02-04T09:54:06;102686.97;;;0.48;100.00
17593;BME280;8915;51.760;14.300;2023-02-04T09:56:34;102685.63;;;0.56;100.00
17593;BME280;8915;51.760;14.300;2023-02-04T09:59:00;102698.03;;;0.65;100.00
17593;BME280;8915;51.760;14.300;2023-02-04T10:01:26;102692.34;;;0.70;100.00
17593;BME280;8915;51.760;14.300;2023-02-04T10:03:55;102695.41;;;0.81;100.00
17593;BME280;8915;51.760;14.300;2023-02-04T10:06:25;102706.69;;;0.85;100.00
17593;BME280;8915;51.760;14.300;2023-02-04T10:08:52;102706.03;;;0.89;100.00
17593;BME280;8915;51.760;14.300;2023-02-04T10:11:20;102711.59;;;0.98;100.00
17593;BME280;8915;51.760;14.300;2023-02-04T10:13:49;102712.09;;;1.09;100.00
17593;BME280;8915;51.760;14.300;2023-02-04T10:16:19;102722.66;;;1.15;100.00
17593;BME280;8915;51.760;14.300;2023-02-04T10:18:46;102720.50;;;1.24;100.00
17593;BME280;8915;51.760;14.300;2023-02-04T10:21:15;102724.31;;;1.32;100.00
17593;BME280;8915;51.760;14.300;2023-02-04T10:23:46;102729.53;;;1.34;100.00
17593;BME280;8915;51.760;14.300;2023-02-04T10:26:15;102737.16;;;1.32;100.00
17593;BME280;8915;51.760;14.300;2023-02-04T10:28:42;102734.59;;;1.32;100.00
17593;BME280;8915;51.760;14.300;2023-02-04T10:31:28;102734.75;;;1.36;100.00
17593;BME280;8915;51.760;14.300;2023-02-04T10:34:02;102733.91;;;1.37;100.00
17593;BME280;8915;51.760;14.300;2023-02-04T10:36:29;102738.50;;;1.44;100.00
17593;BME280;8915;51.760;14.300;2023-02-04T10:39:01;102736.16;;;1.48;100.00
17593;BME280;8915;51.760;14.300;2023-02-04T10:41:28;102739.97;;;1.57;100.00
17593;BME280;8915;51.760;14.300;2023-02-04T10:44:02;102732.72;;;1.67;100.00
17593;BME280;8915;51.760;14.300;2023-02-04T10:46:29;102739.91;;;1.75;100.00
17593;BME280;8915;51.760;14.300;2023-02-04T10:48:56;102749.28;;;1.74;100.00
17593;BME280;8915;51.760;14.300;2023-02-04T10:51:22;102746.38;;;1.66;100.00
17593;BME280;8915;51.760;14.300;2023-02-04T10:53:49;102752.00;;;1.58;100.00
17593;BME280;8915;51.760;14.300;2023-02-04T10:56:34;102744.03;;;1.51;100.00
17593;BME280;8915;51.760;14.300;2023-02-04T10:59:01;102742.03;;;1.46;100.00
17593;BME280;8915;51.760;14.300;2023-02-04T11:01:28;102751.28;;;1.42;100.00
17593;BME280;8915;51.760;14.300;2023-02-04T11:03:54;102746.97;;;1.41;100.00
17593;BME280;8915;51.760;14.300;2023-02-04T11:06:22;102745.03;;;1.36;100.00
17593;BME280;8915;51.760;14.300;2023-02-04T11:08:49;102744.00;;;1.32;100.00
17593;BME280;8915;51.760;14.300;2023-02-04T11:11:20;102740.44;;;1.48;100.00
17593;BME280;8915;51.760;14.300;2023-02-04T11:13:59;102746.47;;;1.68;100.00
17593;BME280;8915;51.760;14.300;2023-02-04T11:16:31;102740.50;;;1.88;100.00
17593;BME280;8915;51.760;14.300;2023-02-04T11:19:01;102741.34;;;2.08;100.00
17593;BME280;8915;51.760;14.300;2023-02-04T11:21:41;102757.94;;;2.15;100.00
17593;BME280;8915;51.760;14.300;2023-02-04T11:24:22;102759.91;;;2.01;100.00
17593;BME280;8915;51.760;14.300;2023-02-04T11:26:50;102757.75;;;1.91;100.00
17593;BME280;8915;51.760;14.300;2023-02-04T11:29:26;102751.19;;;1.78;100.00
17593;BME280;8915;51.760;14.300;2023-02-04T11:31:58;102760.41;;;1.73;100.00
17593;BME280;8915;51.760;14.300;2023-02-04T11:34:31;102764.31;;;1.65;100.00
17593;BME280;8915;51.760;14.300;2023-02-04T11:37:33;102762.22;;;1.56;100.00
17593;BME280;8915;51.760;14.300;2023-02-04T11:40:00;102766.19;;;1.49;100.00
17593;BME280;8915;51.760;14.300;2023-02-04T11:42:30;102765.25;;;1.47;100.00
17593;BME280;8915;51.760;14.300;2023-02-04T11:45:00;102767.25;;;1.53;100.00
17593;BME280;8915;51.760;14.300;2023-02-04T11:47:34;102767.34;;;1.56;100.00
17593;BME280;8915;51.760;14.300;2023-02-04T11:50:03;102766.63;;;1.59;100.00
17593;BME280;8915;51.760;14.300;2023-02-04T11:52:36;102768.97;;;1.54;100.00
17593;BME280;8915;51.760;14.300;2023-02-04T11:55:03;102770.00;;;1.58;100.00
17593;BME280;8915;51.760;14.300;2023-02-04T11:57:37;102770.81;;;1.57;100.00
17593;BME280;8915;51.760;14.300;2023-02-04T12:00:10;102774.25;;;1.57;100.00
17593;BME280;8915;51.760;14.300;2023-02-04T12:02:43;102773.59;;;1.61;100.00
17593;BME280;8915;51.760;14.300;2023-02-04T12:05:12;102785.66;;;1.62;100.00
17593;BME280;8915;51.760;14.300;2023-02-04T12:07:39;102782.06;;;1.59;100.00
17593;BME280;8915;51.760;14.300;2023-02-04T12:10:11;102786.91;;;1.52;100.00
17593;BME280;8915;51.760;14.300;2023-02-04T12:12:41;102785.81;;;1.47;100.00
17593;BME280;8915;51.760;14.300;2023-02-04T12:15:14;102781.88;;;1.36;100.00
17593;BME280;8915;51.760;14.300;2023-02-04T12:17:43;102785.31;;;1.37;100.00
17593;BME280;8915;51.760;14.300;2023-02-04T12:20:10;102785.63;;;1.43;100.00
17593;BME280;8915;51.760;14.300;2023-02-04T12:22:37;102793.66;;;1.50;100.00
17593;BME280;8915;51.760;14.300;2023-02-04T12:25:04;102790.78;;;1.62;100.00
17593;BME280;8915;51.760;14.300;2023-02-04T12:27:30;102794.44;;;1.67;100.00
17593;BME280;8915;51.760;14.300;2023-02-04T12:29:57;102792.75;;;1.68;100.00
17593;BME280;8915;51.760;14.300;2023-02-04T12:32:24;102797.66;;;1.81;100.00
17593;BME280;8915;51.760;14.300;2023-02-04T12:34:51;102800.88;;;1.77;100.00
17593;BME280;8915;51.760;14.300;2023-02-04T12:37:17;102798.16;;;1.74;100.00
17593;BME280;8915;51.760;14.300;2023-02-04T12:39:44;102799.94;;;1.75;100.00
17593;BME280;8915;51.760;14.300;2023-02-04T12:42:10;102807.50;;;1.72;100.00
17593;BME280;8915;51.760;14.300;2023-02-04T12:44:37;102803.56;;;1.61;100.00
17593;BME280;8915;51.760;14.300;2023-02-04T12:47:03;102806.97;;;1.42;100.00
17593;BME280;8915;51.760;14.300;2023-02-04T12:49:31;102807.28;;;1.30;100.00